sensor_id;sensor_type;location;lat;lon;timestamp;P1;durP1;ratioP1;P2;durP2;ratioP2
69369;SDS011;56530;42.640;23.372;2023-04-03T00:00:38;3.50;;;2.35;;
69369;SDS011;56530;42.640;23.372;2023-04-03T00:03:04;2.50;;;1.90;;
69369;SDS011;56530;42.640;23.372;2023-04-03T00:05:29;4.10;;;2.17;;
69369;SDS011;56530;42.640;23.372;2023-04-03T00:07:54;3.03;;;2.17;;
69369;SDS011;56530;42.640;23.372;2023-04-03T00:10:20;4.65;;;2.40;;
69369;SDS011;56530;42.640;23.372;2023-04-03T00:12:46;3.40;;;2.45;;
69369;SDS011;56530;42.640;23.372;2023-04-03T00:15:11;4.03;;;2.10;;
69369;SDS011;56530;42.640;23.372;2023-04-03T00:17:37;3.23;;;2.13;;
69369;SDS011;56530;42.640;23.372;2023-04-03T00:20:03;4.80;;;2.08;;
69369;SDS011;56530;42.640;23.372;2023-04-03T00:22:30;2.83;;;1.90;;
69369;SDS011;56530;42.640;23.372;2023-04-03T00:24:55;3.83;;;2.10;;
69369;SDS011;56530;42.640;23.372;2023-04-03T00:27:21;2.23;;;2.03;;
69369;SDS011;56530;42.640;23.372;2023-04-03T00:29:46;2.60;;;2.15;;
69369;SDS011;56530;42.640;23.372;2023-04-03T00:32:12;2.47;;;2.27;;
69369;SDS011;56530;42.640;23.372;2023-04-03T00:34:38;3.97;;;2.67;;
69369;SDS011;56530;42.640;23.372;2023-04-03T00:37:03;4.33;;;2.60;;
69369;SDS011;56530;42.640;23.372;2023-04-03T00:39:28;3.78;;;2.50;;
69369;SDS011;56530;42.640;23.372;2023-04-03T00:41:54;4.17;;;2.83;;
69369;SDS011;56530;42.640;23.372;2023-04-03T00:47:00;4.20;;;2.30;;
69369;SDS011;56530;42.640;23.372;2023-04-03T00:49:27;2.55;;;2.35;;
69369;SDS011;56530;42.640;23.372;2023-04-03T00:51:53;2.42;;;2.20;;
69369;SDS011;56530;42.640;23.372;2023-04-03T00:54:18;4.25;;;2.60;;
69369;SDS011;56530;42.640;23.372;2023-04-03T00:56:44;3.40;;;2.30;;
69369;SDS011;56530;42.640;23.372;2023-04-03T00:59:11;2.65;;;2.30;;
69369;SDS011;56530;42.640;23.372;2023-04-03T01:01:40;2.97;;;2.47;;
69369;SDS011;56530;42.640;23.372;2023-04-03T01:04:05;3.45;;;2.53;;
69369;SDS011;56530;42.640;23.372;2023-04-03T01:06:49;3.72;;;2.40;;
69369;SDS011;56530;42.640;23.372;2023-04-03T01:09:15;3.47;;;2.30;;
69369;SDS011;56530;42.640;23.372;2023-04-03T01:11:40;3.50;;;2.40;;
69369;SDS011;56530;42.640;23.372;2023-04-03T01:14:06;3.50;;;2.83;;
69369;SDS011;56530;42.640;23.372;2023-04-03T01:16:31;2.95;;;2.53;;
69369;SDS011;56530;42.640;23.372;2023-04-03T01:18:57;3.53;;;2.30;;
69369;SDS011;56530;42.640;23.372;2023-04-03T01:26:50;2.75;;;2.03;;
69369;SDS011;56530;42.640;23.372;2023-04-03T01:29:15;2.72;;;2.00;;
69369;SDS011;56530;42.640;23.372;2023-04-03T01:31:46;3.87;;;2.23;;
69369;SDS011;56530;42.640;23.372;2023-04-03T01:34:13;3.05;;;2.08;;
69369;SDS011;56530;42.640;23.372;2023-04-03T01:36:38;2.27;;;1.87;;
69369;SDS011;56530;42.640;23.372;2023-04-03T01:39:04;2.60;;;2.13;;
69369;SDS011;56530;42.640;23.372;2023-04-03T01:41:29;4.28;;;2.13;;
69369;SDS011;56530;42.640;23.372;2023-04-03T01:43:54;2.60;;;1.83;;
69369;SDS011;56530;42.640;23.372;2023-04-03T01:46:20;3.10;;;2.00;;
69369;SDS011;56530;42.640;23.372;2023-04-03T01:48:46;2.10;;;1.90;;
69369;SDS011;56530;42.640;23.372;2023-04-03T01:51:12;2.80;;;2.35;;
69369;SDS011;56530;42.640;23.372;2023-04-03T01:53:38;2.30;;;2.03;;
69369;SDS011;56530;42.640;23.372;2023-04-03T01:56:03;3.03;;;2.05;;
69369;SDS011;56530;42.640;23.372;2023-04-03T01:58:29;4.13;;;2.20;;
69369;SDS011;56530;42.640;23.372;2023-04-03T02:00:55;2.20;;;2.00;;
69369;SDS011;56530;42.640;23.372;2023-04-03T02:03:20;3.67;;;2.93;;
69369;SDS011;56530;42.640;23.372;2023-04-03T02:05:46;3.45;;;2.25;;
69369;SDS011;56530;42.640;23.372;2023-04-03T02:08:11;4.50;;;2.40;;
69369;SDS011;56530;42.640;23.372;2023-04-03T02:10:39;3.33;;;2.22;;
69369;SDS011;56530;42.640;23.372;2023-04-03T02:13:04;4.25;;;2.80;;
69369;SDS011;56530;42.640;23.372;2023-04-03T04:38:29;12.53;;;4.70;;
69369;SDS011;56530;42.640;23.372;2023-04-03T04:40:54;13.57;;;4.60;;
69369;SDS011;56530;42.640;23.372;2023-04-03T04:43:20;8.52;;;4.72;;
69369;SDS011;56530;42.640;23.372;2023-04-03T04:45:45;26.90;;;17.00;;
69369;SDS011;56530;42.640;23.372;2023-04-03T04:48:10;12.55;;;4.32;;
69369;SDS011;56530;42.640;23.372;2023-04-03T04:50:36;11.90;;;3.53;;
69369;SDS011;56530;42.640;23.372;2023-04-03T04:53:01;9.80;;;4.20;;
69369;SDS011;56530;42.640;23.372;2023-04-03T04:55:27;13.18;;;4.47;;
69369;SDS011;56530;42.640;23.372;2023-04-03T04:57:52;7.50;;;4.60;;
69369;SDS011;56530;42.640;23.372;2023-04-03T05:00:17;13.07;;;4.85;;
69369;SDS011;56530;42.640;23.372;2023-04-03T05:02:43;9.73;;;4.88;;
69369;SDS011;56530;42.640;23.372;2023-04-03T05:05:09;18.40;;;4.25;;
69369;SDS011;56530;42.640;23.372;2023-04-03T05:07:34;12.30;;;4.80;;
69369;SDS011;56530;42.640;23.372;2023-04-03T05:10:00;15.73;;;4.28;;
69369;SDS011;56530;42.640;23.372;2023-04-03T05:12:27;4.95;;;3.85;;
69369;SDS011;56530;42.640;23.372;2023-04-03T05:14:53;7.68;;;3.33;;
69369;SDS011;56530;42.640;23.372;2023-04-03T05:17:18;9.05;;;3.85;;
69369;SDS011;56530;42.640;23.372;2023-04-03T05:19:44;9.13;;;3.47;;
69369;SDS011;56530;42.640;23.372;2023-04-03T05:22:09;13.77;;;3.80;;
69369;SDS011;56530;42.640;23.372;2023-04-03T05:24:35;13.48;;;4.53;;
69369;SDS011;56530;42.640;23.372;2023-04-03T05:27:00;15.38;;;5.82;;
69369;SDS011;56530;42.640;23.372;2023-04-03T05:29:26;7.95;;;4.20;;
69369;SDS011;56530;42.640;23.372;2023-04-03T05:31:51;15.65;;;3.95;;
69369;SDS011;56530;42.640;23.372;2023-04-03T05:34:17;10.17;;;3.97;;
69369;SDS011;56530;42.640;23.372;2023-04-03T05:36:42;13.20;;;4.38;;
69369;SDS011;56530;42.640;23.372;2023-04-03T05:39:08;11.27;;;4.30;;
69369;SDS011;56530;42.640;23.372;2023-04-03T05:41:33;14.20;;;4.43;;
69369;SDS011;56530;42.640;23.372;2023-04-03T05:43:58;11.32;;;4.80;;
69369;SDS011;56530;42.640;23.372;2023-04-03T05:46:24;11.57;;;5.30;;
69369;SDS011;56530;42.640;23.372;2023-04-03T05:48:49;12.47;;;4.83;;
69369;SDS011;56530;42.640;23.372;2023-04-03T05:51:22;8.27;;;4.80;;
69369;SDS011;56530;42.640;23.372;2023-04-03T05:53:52;9.00;;;5.20;;
69369;SDS011;56530;42.640;23.372;2023-04-03T05:56:20;10.00;;;4.80;;
69369;SDS011;56530;42.640;23.372;2023-04-03T05:58:46;11.02;;;4.47;;
69369;SDS011;56530;42.640;23.372;2023-04-03T06:01:11;8.02;;;4.00;;
69369;SDS011;56530;42.640;23.372;2023-04-03T06:03:37;10.82;;;4.38;;
69369;SDS011;56530;42.640;23.372;2023-04-03T06:06:04;14.30;;;5.82;;
69369;SDS011;56530;42.640;23.372;2023-04-03T06:08:30;13.27;;;4.38;;
69369;SDS011;56530;42.640;23.372;2023-04-03T06:10:56;14.75;;;5.28;;
69369;SDS011;56530;42.640;23.372;2023-04-03T06:13:21;7.97;;;4.20;;
69369;SDS011;56530;42.640;23.372;2023-04-03T06:15:47;11.35;;;5.95;;
69369;SDS011;56530;42.640;23.372;2023-04-03T06:18:12;8.77;;;4.93;;
69369;SDS011;56530;42.640;23.372;2023-04-03T06:20:38;9.63;;;5.43;;
69369;SDS011;56530;42.640;23.372;2023-04-03T06:23:03;8.88;;;5.80;;
69369;SDS011;56530;42.640;23.372;2023-04-03T06:25:28;11.10;;;5.63;;
69369;SDS011;56530;42.640;23.372;2023-04-03T06:27:54;9.00;;;4.95;;
69369;SDS011;56530;42.640;23.372;2023-04-03T06:30:20;10.70;;;5.05;;
69369;SDS011;56530;42.640;23.372;2023-04-03T06:32:46;7.55;;;4.22;;
69369;SDS011;56530;42.640;23.372;2023-04-03T06:35:11;9.20;;;4.07;;
69369;SDS011;56530;42.640;23.372;2023-04-03T06:37:36;14.17;;;4.57;;
69369;SDS011;56530;42.640;23.372;2023-04-03T06:40:02;9.20;;;3.95;;
69369;SDS011;56530;42.640;23.372;2023-04-03T06:44:54;10.93;;;4.65;;
69369;SDS011;56530;42.640;23.372;2023-04-03T06:47:20;14.90;;;5.40;;
69369;SDS011;56530;42.640;23.372;2023-04-03T06:49:45;14.13;;;4.70;;
69369;SDS011;56530;42.640;23.372;2023-04-03T06:52:11;9.75;;;4.82;;
69369;SDS011;56530;42.640;23.372;2023-04-03T07:23:46;8.95;;;5.75;;
69369;SDS011;56530;42.640;23.372;2023-04-03T07:26:11;14.97;;;7.00;;
69369;SDS011;56530;42.640;23.372;2023-04-03T07:28:37;14.43;;;6.28;;
69369;SDS011;56530;42.640;23.372;2023-04-03T07:31:04;12.57;;;6.05;;
69369;SDS011;56530;42.640;23.372;2023-04-03T07:33:33;19.85;;;6.03;;
69369;SDS011;56530;42.640;23.372;2023-04-03T07:35:59;9.23;;;6.60;;
69369;SDS011;56530;42.640;23.372;2023-04-03T07:38:26;15.50;;;7.18;;
69369;SDS011;56530;42.640;23.372;2023-04-03T07:40:52;24.23;;;7.43;;
69369;SDS011;56530;42.640;23.372;2023-04-03T07:43:18;16.90;;;8.10;;
69369;SDS011;56530;42.640;23.372;2023-04-03T07:45:45;13.90;;;8.77;;
69369;SDS011;56530;42.640;23.372;2023-04-03T07:48:12;16.75;;;8.40;;
69369;SDS011;56530;42.640;23.372;2023-04-03T07:50:40;19.17;;;8.45;;
69369;SDS011;56530;42.640;23.372;2023-04-03T07:53:05;17.83;;;7.60;;
69369;SDS011;56530;42.640;23.372;2023-04-03T07:55:31;21.98;;;9.70;;
69369;SDS011;56530;42.640;23.372;2023-04-03T07:57:56;14.73;;;9.50;;
69369;SDS011;56530;42.640;23.372;2023-04-03T08:00:22;21.77;;;12.20;;
69369;SDS011;56530;42.640;23.372;2023-04-03T08:02:48;24.10;;;12.30;;
69369;SDS011;56530;42.640;23.372;2023-04-03T08:05:16;26.77;;;14.32;;
69369;SDS011;56530;42.640;23.372;2023-04-03T08:07:45;28.00;;;12.82;;
69369;SDS011;56530;42.640;23.372;2023-04-03T08:10:11;30.83;;;14.27;;
69369;SDS011;56530;42.640;23.372;2023-04-03T08:12:37;24.15;;;12.63;;
69369;SDS011;56530;42.640;23.372;2023-04-03T08:15:02;23.10;;;13.57;;
69369;SDS011;56530;42.640;23.372;2023-04-03T08:17:29;27.30;;;14.50;;
69369;SDS011;56530;42.640;23.372;2023-04-03T08:19:54;21.35;;;13.00;;
69369;SDS011;56530;42.640;23.372;2023-04-03T08:22:20;21.57;;;13.13;;
69369;SDS011;56530;42.640;23.372;2023-04-03T08:24:45;18.48;;;13.45;;
69369;SDS011;56530;42.640;23.372;2023-04-03T08:27:11;26.65;;;11.02;;
69369;SDS011;56530;42.640;23.372;2023-04-03T08:29:36;22.40;;;9.75;;
69369;SDS011;56530;42.640;23.372;2023-04-03T08:32:02;23.15;;;9.73;;
69369;SDS011;56530;42.640;23.372;2023-04-03T08:34:29;18.92;;;9.90;;
69369;SDS011;56530;42.640;23.372;2023-04-03T08:36:54;20.70;;;10.93;;
69369;SDS011;56530;42.640;23.372;2023-04-03T08:39:20;18.05;;;9.88;;
69369;SDS011;56530;42.640;23.372;2023-04-03T08:41:45;18.30;;;10.30;;
69369;SDS011;56530;42.640;23.372;2023-04-03T08:44:15;23.58;;;10.15;;
69369;SDS011;56530;42.640;23.372;2023-04-03T08:49:43;21.65;;;10.15;;
69369;SDS011;56530;42.640;23.372;2023-04-03T08:52:58;16.95;;;10.18;;
69369;SDS011;56530;42.640;23.372;2023-04-03T08:57:48;21.52;;;9.02;;
69369;SDS011;56530;42.640;23.372;2023-04-03T09:00:24;22.40;;;11.27;;
69369;SDS011;56530;42.640;23.372;2023-04-03T09:02:51;19.63;;;11.02;;
69369;SDS011;56530;42.640;23.372;2023-04-03T09:05:19;25.85;;;9.95;;
69369;SDS011;56530;42.640;23.372;2023-04-03T09:07:56;17.42;;;7.90;;
69369;SDS011;56530;42.640;23.372;2023-04-03T09:10:29;20.52;;;8.93;;
69369;SDS011;56530;42.640;23.372;2023-04-03T09:16:18;14.07;;;8.52;;
69369;SDS011;56530;42.640;23.372;2023-04-03T09:18:48;19.42;;;7.22;;
69369;SDS011;56530;42.640;23.372;2023-04-03T09:21:25;13.82;;;8.27;;
69369;SDS011;56530;42.640;23.372;2023-04-03T09:23:58;22.35;;;8.18;;
69369;SDS011;56530;42.640;23.372;2023-04-03T09:26:25;8.57;;;5.82;;
69369;SDS011;56530;42.640;23.372;2023-04-03T09:29:21;11.57;;;6.50;;
69369;SDS011;56530;42.640;23.372;2023-04-03T09:31:48;13.48;;;6.68;;
69369;SDS011;56530;42.640;23.372;2023-04-03T09:34:25;16.95;;;7.18;;
69369;SDS011;56530;42.640;23.372;2023-04-03T09:36:55;12.13;;;6.85;;
69369;SDS011;56530;42.640;23.372;2023-04-03T09:39:26;8.48;;;4.47;;
69369;SDS011;56530;42.640;23.372;2023-04-03T09:41:58;5.03;;;3.42;;
69369;SDS011;56530;42.640;23.372;2023-04-03T09:47:18;3.55;;;2.70;;
69369;SDS011;56530;42.640;23.372;2023-04-03T09:50:08;7.13;;;3.10;;
69369;SDS011;56530;42.640;23.372;2023-04-03T09:52:37;7.57;;;2.47;;
69369;SDS011;56530;42.640;23.372;2023-04-03T09:55:07;7.88;;;2.75;;
69369;SDS011;56530;42.640;23.372;2023-04-03T09:57:38;5.10;;;3.45;;
69369;SDS011;56530;42.640;23.372;2023-04-03T10:00:04;7.15;;;4.75;;
69369;SDS011;56530;42.640;23.372;2023-04-03T10:04:59;3.67;;;3.10;;
69369;SDS011;56530;42.640;23.372;2023-04-03T10:07:32;2.88;;;2.67;;
69369;SDS011;56530;42.640;23.372;2023-04-03T10:10:20;3.15;;;2.70;;
69369;SDS011;56530;42.640;23.372;2023-04-03T10:12:48;4.82;;;3.10;;
69369;SDS011;56530;42.640;23.372;2023-04-03T10:15:15;8.90;;;3.20;;
69369;SDS011;56530;42.640;23.372;2023-04-03T10:23:02;3.45;;;2.78;;
69369;SDS011;56530;42.640;23.372;2023-04-03T10:28:28;4.03;;;3.15;;
69369;SDS011;56530;42.640;23.372;2023-04-03T10:34:21;9.85;;;4.00;;
69369;SDS011;56530;42.640;23.372;2023-04-03T10:47:04;2.95;;;2.25;;
69369;SDS011;56530;42.640;23.372;2023-04-03T10:52:22;3.40;;;2.53;;
69369;SDS011;56530;42.640;23.372;2023-04-03T10:55:00;3.90;;;2.53;;
69369;SDS011;56530;42.640;23.372;2023-04-03T10:57:27;4.18;;;2.60;;
69369;SDS011;56530;42.640;23.372;2023-04-03T10:59:55;2.87;;;2.67;;
69369;SDS011;56530;42.640;23.372;2023-04-03T11:02:33;2.97;;;2.70;;
69369;SDS011;56530;42.640;23.372;2023-04-03T11:07:32;3.75;;;2.60;;
69369;SDS011;56530;42.640;23.372;2023-04-03T11:10:05;3.72;;;2.50;;
69369;SDS011;56530;42.640;23.372;2023-04-03T11:12:46;2.40;;;2.00;;
69369;SDS011;56530;42.640;23.372;2023-04-03T11:15:24;3.05;;;2.38;;
69369;SDS011;56530;42.640;23.372;2023-04-03T11:17:55;6.63;;;3.83;;
69369;SDS011;56530;42.640;23.372;2023-04-03T11:20:31;3.65;;;3.10;;
69369;SDS011;56530;42.640;23.372;2023-04-03T11:23:14;2.60;;;2.40;;
69369;SDS011;56530;42.640;23.372;2023-04-03T11:25:42;9.05;;;3.85;;
69369;SDS011;56530;42.640;23.372;2023-04-03T11:28:16;6.50;;;4.15;;
69369;SDS011;56530;42.640;23.372;2023-04-03T11:30:49;4.97;;;3.80;;
69369;SDS011;56530;42.640;23.372;2023-04-03T11:35:58;4.65;;;3.33;;
69369;SDS011;56530;42.640;23.372;2023-04-03T11:38:35;4.10;;;3.63;;
69369;SDS011;56530;42.640;23.372;2023-04-03T11:41:04;6.05;;;3.55;;
69369;SDS011;56530;42.640;23.372;2023-04-03T11:43:32;4.28;;;3.83;;
69369;SDS011;56530;42.640;23.372;2023-04-03T11:50:56;3.85;;;2.60;;
69369;SDS011;56530;42.640;23.372;2023-04-03T11:53:42;3.20;;;2.92;;
69369;SDS011;56530;42.640;23.372;2023-04-03T12:04:08;2.83;;;2.50;;
69369;SDS011;56530;42.640;23.372;2023-04-03T12:09:04;2.90;;;2.67;;
69369;SDS011;56530;42.640;23.372;2023-04-03T12:11:53;5.43;;;2.90;;
69369;SDS011;56530;42.640;23.372;2023-04-03T12:14:21;3.28;;;2.65;;
69369;SDS011;56530;42.640;23.372;2023-04-03T12:16:47;4.70;;;3.20;;
69369;SDS011;56530;42.640;23.372;2023-04-03T12:37:03;4.47;;;4.07;;
69369;SDS011;56530;42.640;23.372;2023-04-03T12:45:15;15.75;;;8.98;;
69369;SDS011;56530;42.640;23.372;2023-04-03T12:47:44;5.32;;;4.80;;
69369;SDS011;56530;42.640;23.372;2023-04-03T12:50:16;7.80;;;4.75;;
69369;SDS011;56530;42.640;23.372;2023-04-03T12:52:44;9.88;;;4.45;;
69369;SDS011;56530;42.640;23.372;2023-04-03T12:55:18;7.15;;;4.50;;
69369;SDS011;56530;42.640;23.372;2023-04-03T12:57:45;5.03;;;3.50;;
69369;SDS011;56530;42.640;23.372;2023-04-03T13:02:55;4.38;;;3.95;;
69369;SDS011;56530;42.640;23.372;2023-04-03T13:05:21;5.25;;;3.33;;
69369;SDS011;56530;42.640;23.372;2023-04-03T13:07:48;5.38;;;3.92;;
69369;SDS011;56530;42.640;23.372;2023-04-03T13:10:18;3.05;;;2.83;;
69369;SDS011;56530;42.640;23.372;2023-04-03T13:12:45;3.50;;;3.20;;
69369;SDS011;56530;42.640;23.372;2023-04-03T13:15:26;4.07;;;3.67;;
69369;SDS011;56530;42.640;23.372;2023-04-03T13:17:54;6.78;;;3.90;;
69369;SDS011;56530;42.640;23.372;2023-04-03T13:20:27;4.50;;;3.65;;
69369;SDS011;56530;42.640;23.372;2023-04-03T13:23:01;5.60;;;4.60;;
69369;SDS011;56530;42.640;23.372;2023-04-03T13:25:31;5.97;;;3.47;;
69369;SDS011;56530;42.640;23.372;2023-04-03T13:27:59;3.70;;;3.40;;
69369;SDS011;56530;42.640;23.372;2023-04-03T13:30:28;4.47;;;3.67;;
69369;SDS011;56530;42.640;23.372;2023-04-03T13:32:55;3.85;;;3.50;;
69369;SDS011;56530;42.640;23.372;2023-04-03T13:35:32;9.90;;;3.50;;
69369;SDS011;56530;42.640;23.372;2023-04-03T13:40:54;3.72;;;3.42;;
69369;SDS011;56530;42.640;23.372;2023-04-03T13:43:23;4.97;;;4.47;;
69369;SDS011;56530;42.640;23.372;2023-04-03T13:45:55;6.32;;;4.40;;
69369;SDS011;56530;42.640;23.372;2023-04-03T13:48:22;7.55;;;4.68;;
69369;SDS011;56530;42.640;23.372;2023-04-03T13:50:56;8.95;;;4.45;;
69369;SDS011;56530;42.640;23.372;2023-04-03T13:53:26;6.93;;;4.70;;
69369;SDS011;56530;42.640;23.372;2023-04-03T13:58:26;6.68;;;4.60;;
69369;SDS011;56530;42.640;23.372;2023-04-03T14:00:54;5.75;;;4.60;;
69369;SDS011;56530;42.640;23.372;2023-04-03T14:03:31;6.18;;;5.10;;
69369;SDS011;56530;42.640;23.372;2023-04-03T14:06:09;6.45;;;4.50;;
69369;SDS011;56530;42.640;23.372;2023-04-03T14:08:36;5.32;;;4.40;;
69369;SDS011;56530;42.640;23.372;2023-04-03T14:11:01;6.03;;;4.43;;
69369;SDS011;56530;42.640;23.372;2023-04-03T14:13:29;8.38;;;4.90;;
69369;SDS011;56530;42.640;23.372;2023-04-03T14:15:55;7.13;;;5.97;;
69369;SDS011;56530;42.640;23.372;2023-04-03T14:18:20;5.25;;;4.63;;
69369;SDS011;56530;42.640;23.372;2023-04-03T14:20:46;5.07;;;4.50;;
69369;SDS011;56530;42.640;23.372;2023-04-03T14:23:12;6.80;;;4.40;;
69369;SDS011;56530;42.640;23.372;2023-04-03T14:25:38;4.88;;;3.83;;
69369;SDS011;56530;42.640;23.372;2023-04-03T14:28:21;6.32;;;4.28;;
69369;SDS011;56530;42.640;23.372;2023-04-03T14:30:49;5.40;;;3.88;;
69369;SDS011;56530;42.640;23.372;2023-04-03T14:33:20;3.95;;;3.65;;
69369;SDS011;56530;42.640;23.372;2023-04-03T14:35:46;3.20;;;2.90;;
69369;SDS011;56530;42.640;23.372;2023-04-03T14:38:20;6.25;;;4.30;;
69369;SDS011;56530;42.640;23.372;2023-04-03T14:40:46;4.38;;;3.97;;
69369;SDS011;56530;42.640;23.372;2023-04-03T14:43:12;4.55;;;4.13;;
69369;SDS011;56530;42.640;23.372;2023-04-03T14:45:38;3.92;;;3.40;;
69369;SDS011;56530;42.640;23.372;2023-04-03T14:48:03;3.20;;;2.85;;
69369;SDS011;56530;42.640;23.372;2023-04-03T14:50:29;3.17;;;2.97;;
69369;SDS011;56530;42.640;23.372;2023-04-03T14:52:56;3.15;;;2.88;;
69369;SDS011;56530;42.640;23.372;2023-04-03T14:55:24;2.78;;;2.58;;
69369;SDS011;56530;42.640;23.372;2023-04-03T14:57:50;3.97;;;3.03;;
69369;SDS011;56530;42.640;23.372;2023-04-03T15:00:17;4.70;;;3.30;;
69369;SDS011;56530;42.640;23.372;2023-04-03T15:02:44;7.05;;;3.25;;
69369;SDS011;56530;42.640;23.372;2023-04-03T15:05:10;5.28;;;3.40;;
69369;SDS011;56530;42.640;23.372;2023-04-03T15:07:37;3.00;;;2.70;;
69369;SDS011;56530;42.640;23.372;2023-04-03T15:10:18;5.03;;;3.65;;
69369;SDS011;56530;42.640;23.372;2023-04-03T15:12:45;4.60;;;3.28;;
69369;SDS011;56530;42.640;23.372;2023-04-03T15:15:11;4.47;;;4.03;;
69369;SDS011;56530;42.640;23.372;2023-04-03T15:17:37;4.78;;;3.78;;
69369;SDS011;56530;42.640;23.372;2023-04-03T15:20:05;4.88;;;4.38;;
69369;SDS011;56530;42.640;23.372;2023-04-03T15:22:41;6.43;;;5.78;;
69369;SDS011;56530;42.640;23.372;2023-04-03T15:25:07;4.80;;;3.92;;
69369;SDS011;56530;42.640;23.372;2023-04-03T15:27:33;6.93;;;4.80;;
69369;SDS011;56530;42.640;23.372;2023-04-03T15:29:58;5.00;;;3.85;;
69369;SDS011;56530;42.640;23.372;2023-04-03T15:32:24;6.85;;;4.15;;
69369;SDS011;56530;42.640;23.372;2023-04-03T15:34:49;7.72;;;3.70;;
69369;SDS011;56530;42.640;23.372;2023-04-03T15:37:14;6.47;;;3.97;;
69369;SDS011;56530;42.640;23.372;2023-04-03T15:39:40;5.85;;;4.20;;
69369;SDS011;56530;42.640;23.372;2023-04-03T15:42:05;5.25;;;4.75;;
69369;SDS011;56530;42.640;23.372;2023-04-03T15:44:31;5.10;;;4.60;;
69369;SDS011;56530;42.640;23.372;2023-04-03T15:46:58;7.47;;;4.80;;
69369;SDS011;56530;42.640;23.372;2023-04-03T15:49:24;6.43;;;4.68;;
69369;SDS011;56530;42.640;23.372;2023-04-03T15:51:50;6.63;;;5.50;;
69369;SDS011;56530;42.640;23.372;2023-04-03T15:54:16;7.43;;;4.95;;
69369;SDS011;56530;42.640;23.372;2023-04-03T15:56:41;5.28;;;4.70;;
69369;SDS011;56530;42.640;23.372;2023-04-03T15:59:06;8.38;;;6.50;;
69369;SDS011;56530;42.640;23.372;2023-04-03T16:01:32;11.00;;;8.73;;
69369;SDS011;56530;42.640;23.372;2023-04-03T16:03:57;8.32;;;6.47;;
69369;SDS011;56530;42.640;23.372;2023-04-03T16:06:23;6.45;;;5.45;;
69369;SDS011;56530;42.640;23.372;2023-04-03T16:08:49;6.10;;;4.20;;
69369;SDS011;56530;42.640;23.372;2023-04-03T16:11:15;4.40;;;3.90;;
69369;SDS011;56530;42.640;23.372;2023-04-03T16:13:40;5.43;;;4.72;;
69369;SDS011;56530;42.640;23.372;2023-04-03T16:16:07;5.35;;;3.63;;
69369;SDS011;56530;42.640;23.372;2023-04-03T16:18:32;4.40;;;3.97;;
69369;SDS011;56530;42.640;23.372;2023-04-03T16:20:59;6.45;;;3.83;;
69369;SDS011;56530;42.640;23.372;2023-04-03T16:23:25;5.40;;;4.60;;
69369;SDS011;56530;42.640;23.372;2023-04-03T16:25:50;7.45;;;4.32;;
69369;SDS011;56530;42.640;23.372;2023-04-03T16:28:16;5.25;;;4.35;;
69369;SDS011;56530;42.640;23.372;2023-04-03T16:30:42;5.82;;;4.18;;
69369;SDS011;56530;42.640;23.372;2023-04-03T16:33:09;5.72;;;4.13;;
69369;SDS011;56530;42.640;23.372;2023-04-03T16:35:35;4.95;;;3.53;;
69369;SDS011;56530;42.640;23.372;2023-04-03T16:38:01;3.08;;;2.30;;
69369;SDS011;56530;42.640;23.372;2023-04-03T16:40:26;3.10;;;2.78;;
69369;SDS011;56530;42.640;23.372;2023-04-03T16:42:52;2.72;;;2.42;;
69369;SDS011;56530;42.640;23.372;2023-04-03T16:45:17;2.88;;;2.58;;
69369;SDS011;56530;42.640;23.372;2023-04-03T16:47:42;3.22;;;2.50;;
69369;SDS011;56530;42.640;23.372;2023-04-03T16:50:08;3.85;;;3.00;;
69369;SDS011;56530;42.640;23.372;2023-04-03T16:52:34;4.38;;;2.95;;
69369;SDS011;56530;42.640;23.372;2023-04-03T16:55:00;3.45;;;2.92;;
69369;SDS011;56530;42.640;23.372;2023-04-03T16:57:25;4.68;;;3.13;;
69369;SDS011;56530;42.640;23.372;2023-04-03T16:59:51;4.63;;;3.80;;
69369;SDS011;56530;42.640;23.372;2023-04-03T17:02:18;3.83;;;3.38;;
69369;SDS011;56530;42.640;23.372;2023-04-03T17:04:44;4.28;;;3.88;;
69369;SDS011;56530;42.640;23.372;2023-04-03T17:07:09;4.18;;;3.78;;
69369;SDS011;56530;42.640;23.372;2023-04-03T17:09:35;3.65;;;3.35;;
69369;SDS011;56530;42.640;23.372;2023-04-03T17:12:00;4.45;;;3.28;;
69369;SDS011;56530;42.640;23.372;2023-04-03T17:14:26;3.25;;;2.95;;
69369;SDS011;56530;42.640;23.372;2023-04-03T17:16:51;4.03;;;3.20;;
69369;SDS011;56530;42.640;23.372;2023-04-03T17:19:17;3.17;;;2.65;;
69369;SDS011;56530;42.640;23.372;2023-04-03T17:21:43;4.10;;;3.33;;
69369;SDS011;56530;42.640;23.372;2023-04-03T17:24:10;4.37;;;3.93;;
69369;SDS011;56530;42.640;23.372;2023-04-03T17:26:38;3.35;;;3.03;;
69369;SDS011;56530;42.640;23.372;2023-04-03T17:29:04;4.45;;;3.30;;
69369;SDS011;56530;42.640;23.372;2023-04-03T17:31:30;3.63;;;3.03;;
69369;SDS011;56530;42.640;23.372;2023-04-03T17:33:55;5.40;;;3.83;;
69369;SDS011;56530;42.640;23.372;2023-04-03T17:36:21;2.92;;;2.72;;
69369;SDS011;56530;42.640;23.372;2023-04-03T17:38:49;3.28;;;2.97;;
69369;SDS011;56530;42.640;23.372;2023-04-03T17:41:15;10.20;;;3.70;;
69369;SDS011;56530;42.640;23.372;2023-04-03T17:43:41;3.20;;;2.67;;
69369;SDS011;56530;42.640;23.372;2023-04-03T17:46:07;3.75;;;2.80;;
69369;SDS011;56530;42.640;23.372;2023-04-03T17:48:34;3.10;;;2.80;;
69369;SDS011;56530;42.640;23.372;2023-04-03T17:51:04;3.42;;;3.13;;
69369;SDS011;56530;42.640;23.372;2023-04-03T17:53:34;3.28;;;2.80;;
69369;SDS011;56530;42.640;23.372;2023-04-03T17:56:10;4.20;;;3.30;;
69369;SDS011;56530;42.640;23.372;2023-04-03T17:58:36;2.78;;;2.58;;
69369;SDS011;56530;42.640;23.372;2023-04-03T18:03:57;3.47;;;2.47;;
69369;SDS011;56530;42.640;23.372;2023-04-03T18:06:26;2.47;;;2.28;;
69369;SDS011;56530;42.640;23.372;2023-04-03T18:08:56;4.43;;;2.60;;
69369;SDS011;56530;42.640;23.372;2023-04-03T18:11:26;3.03;;;2.45;;
69369;SDS011;56530;42.640;23.372;2023-04-03T18:13:52;2.15;;;2.00;;
69369;SDS011;56530;42.640;23.372;2023-04-03T18:16:18;3.13;;;2.17;;
69369;SDS011;56530;42.640;23.372;2023-04-03T18:18:43;2.30;;;2.10;;
69369;SDS011;56530;42.640;23.372;2023-04-03T18:21:09;1.83;;;1.73;;
69369;SDS011;56530;42.640;23.372;2023-04-03T18:23:36;2.00;;;1.80;;
69369;SDS011;56530;42.640;23.372;2023-04-03T18:26:04;2.08;;;1.95;;
69369;SDS011;56530;42.640;23.372;2023-04-03T18:28:31;3.65;;;2.17;;
69369;SDS011;56530;42.640;23.372;2023-04-03T18:30:57;3.60;;;3.25;;
69369;SDS011;56530;42.640;23.372;2023-04-03T18:33:23;1.92;;;1.67;;
69369;SDS011;56530;42.640;23.372;2023-04-03T18:35:49;2.00;;;1.90;;
69369;SDS011;56530;42.640;23.372;2023-04-03T18:38:14;2.40;;;2.13;;
69369;SDS011;56530;42.640;23.372;2023-04-03T18:40:40;1.83;;;1.73;;
69369;SDS011;56530;42.640;23.372;2023-04-03T18:43:06;1.92;;;1.83;;
69369;SDS011;56530;42.640;23.372;2023-04-03T18:45:32;1.77;;;1.67;;
69369;SDS011;56530;42.640;23.372;2023-04-03T18:47:58;2.17;;;1.98;;
69369;SDS011;56530;42.640;23.372;2023-04-03T18:50:23;2.10;;;1.90;;
69369;SDS011;56530;42.640;23.372;2023-04-03T18:52:49;1.40;;;1.30;;
69369;SDS011;56530;42.640;23.372;2023-04-03T18:55:15;1.85;;;1.70;;
69369;SDS011;56530;42.640;23.372;2023-04-03T18:57:44;1.40;;;1.30;;
69369;SDS011;56530;42.640;23.372;2023-04-03T19:00:12;1.90;;;1.70;;
69369;SDS011;56530;42.640;23.372;2023-04-03T19:02:39;2.63;;;1.60;;
69369;SDS011;56530;42.640;23.372;2023-04-03T19:05:05;0.98;;;0.93;;
69369;SDS011;56530;42.640;23.372;2023-04-03T19:07:32;1.83;;;1.38;;
69369;SDS011;56530;42.640;23.372;2023-04-03T19:09:57;1.42;;;1.33;;